Terminal Aerodrome Forecast
Issued by NWS

Home | Current Version | Previous Version | Text Only | Print | Product List | Glossary On
Versions: 1 2 3 4 5 6 7 8 9 10 11 12 13 14 15 16 17 18 19 20 21 22 23 24
192
FTUS44 KSJT 051123
TAFSOA
TAF
KSOA 051123Z 0512/0612 36003KT 5SM -RA BR OVC009
     FM051900 26002KT P6SM OVC012
     FM052200 24006KT P6SM SKC=

USA.gov is the U.S. government's official web portal to all federal, state and local government web resources and services.